Time;durP1;ratioP1;P1;durP2;ratioP2;P2;SDS_P1;SDS_P2;PMS_P1;PMS_P2;Temp;Humidity;BMP_temperature;BMP_pressure;BME280_temperature;BME280_humidity;BME280_pressure;Samples;Min_cycle;Max_cycle;Signal;HPM_P1;HPM_P2
2022/03/13 05:02:20;;;;;;;22.27;13.07;;;7.70;99.90;;;;;;6329722;22;20019;-80
2022/03/13 05:04:47;;;;;;;24.85;13.52;;;7.70;99.90;;;;;;6339692;22;20035;-81
2022/03/13 05:07:13;;;;;;;23.05;13.10;;;7.70;99.90;;;;;;6311765;22;20387;-79
2022/03/13 05:09:40;;;;;;;21.98;13.38;;;7.70;99.90;;;;;;6287827;22;20425;-80
2022/03/13 05:12:07;;;;;;;22.58;14.02;;;7.70;99.90;;;;;;6341955;22;20056;-79
2022/03/13 05:14:34;;;;;;;22.45;12.60;;;7.70;99.90;;;;;;6262616;22;20481;-80
2022/03/13 05:16:59;;;;;;;23.50;13.57;;;7.70;99.90;;;;;;6313100;22;20492;-81
2022/03/13 05:19:28;;;;;;;23.02;12.80;;;7.80;99.90;;;;;;6313978;22;20034;-79
2022/03/13 05:21:54;;;;;;;24.58;13.50;;;7.80;99.90;;;;;;6313609;22;20336;-80
2022/03/13 05:24:19;;;;;;;22.40;12.45;;;7.80;99.90;;;;;;6313933;22;20015;-81
2022/03/13 05:26:48;;;;;;;22.67;13.13;;;7.80;99.90;;;;;;6341115;22;20420;-81
2022/03/13 05:29:16;;;;;;;23.13;13.48;;;7.80;99.90;;;;;;6314797;22;20064;-80
2022/03/13 05:31:46;;;;;;;20.75;13.10;;;7.70;99.90;;;;;;6314092;22;20015;-80
2022/03/13 05:34:12;;;;;;;22.92;13.77;;;7.70;99.90;;;;;;6313462;22;20007;-81
2022/03/13 05:36:38;;;;;;;27.95;13.70;;;7.70;99.90;;;;;;6313017;22;20382;-81
2022/03/13 05:39:03;;;;;;;23.35;13.50;;;7.70;99.90;;;;;;6313126;22;20440;-81
2022/03/13 05:41:30;;;;;;;25.92;13.63;;;7.70;99.90;;;;;;6287191;22;20132;-81
2022/03/13 05:43:56;;;;;;;22.45;13.60;;;7.60;99.90;;;;;;6287662;22;20094;-81
2022/03/13 05:46:23;;;;;;;22.10;13.50;;;7.60;99.90;;;;;;6287842;22;20475;-81
2022/03/13 05:48:49;;;;;;;22.80;13.15;;;7.60;99.90;;;;;;6312619;22;20011;-81
2022/03/13 05:51:15;;;;;;;22.20;13.13;;;7.60;99.90;;;;;;6312853;22;20006;-80
2022/03/13 05:53:41;;;;;;;24.65;13.43;;;7.60;99.90;;;;;;6312891;22;20098;-81
2022/03/13 05:56:07;;;;;;;21.65;12.90;;;7.60;99.90;;;;;;6337894;22;20017;-80
2022/03/13 05:58:32;;;;;;;21.48;12.80;;;7.60;99.90;;;;;;6312837;22;20011;-81
2022/03/13 06:01:05;;;;;;;22.02;12.95;;;7.60;99.90;;;;;;6312809;22;20015;-81
2022/03/13 06:03:32;;;;;;;24.90;13.32;;;7.60;99.90;;;;;;6313011;22;20017;-82
2022/03/13 06:06:02;;;;;;;28.48;13.52;;;7.70;99.90;;;;;;6312483;22;20019;-80
2022/03/13 06:08:35;;;;;;;23.77;13.15;;;7.60;99.90;;;;;;6340329;22;20011;-80
2022/03/13 06:11:01;;;;;;;22.05;12.75;;;7.70;99.90;;;;;;6312527;22;20018;-81
2022/03/13 06:13:27;;;;;;;20.73;12.50;;;7.70;99.90;;;;;;6286705;22;20006;-81
2022/03/13 06:15:57;;;;;;;21.63;11.75;;;7.70;99.90;;;;;;6341077;22;20011;-80
2022/03/13 06:18:27;;;;;;;23.15;12.80;;;7.70;99.90;;;;;;6337578;22;20011;-81
2022/03/13 06:20:56;;;;;;;21.52;12.27;;;7.70;99.90;;;;;;6340535;22;20018;-80
2022/03/13 06:23:29;;;;;;;22.83;13.05;;;7.80;99.90;;;;;;6313822;22;20014;-80
2022/03/13 06:25:58;;;;;;;20.13;12.43;;;7.80;99.90;;;;;;6312926;22;20401;-81
2022/03/13 06:28:25;;;;;;;26.42;13.43;;;7.70;99.90;;;;;;6312786;22;20452;-80
2022/03/13 06:30:51;;;;;;;23.63;13.15;;;7.70;99.90;;;;;;6312378;22;20018;-81
2022/03/13 06:33:16;;;;;;;22.52;12.90;;;7.70;99.90;;;;;;6312449;22;20007;-80
2022/03/13 06:35:45;;;;;;;23.33;13.23;;;7.70;99.90;;;;;;6340507;22;20022;-82
2022/03/13 06:38:11;;;;;;;25.25;13.90;;;7.70;99.90;;;;;;6312442;22;20436;-80
2022/03/13 06:40:37;;;;;;;20.17;11.73;;;7.60;99.90;;;;;;6311806;22;20011;-79
2022/03/13 06:43:06;;;;;;;22.95;13.50;;;7.60;99.90;;;;;;6312220;22;20033;-80
2022/03/13 06:45:32;;;;;;;22.40;12.70;;;7.60;99.90;;;;;;6312351;22;20336;-80
2022/03/13 06:47:58;;;;;;;22.48;13.13;;;7.60;99.90;;;;;;6312418;22;20060;-80
2022/03/13 06:50:28;;;;;;;23.50;13.27;;;7.60;99.90;;;;;;6312347;22;20444;-80
2022/03/13 06:52:55;;;;;;;22.48;13.88;;;7.60;99.90;;;;;;6313069;22;20121;-80
2022/03/13 06:55:24;;;;;;;22.52;13.73;;;7.50;99.90;;;;;;6313223;22;20064;-80
2022/03/13 06:57:50;;;;;;;24.23;13.68;;;7.50;99.90;;;;;;6286579;22;20006;-80
2022/03/13 07:00:16;;;;;;;23.67;13.70;;;7.50;99.90;;;;;;6285436;22;20007;-81
2022/03/13 07:02:44;;;;;;;22.60;13.73;;;7.50;99.90;;;;;;6312329;22;20114;-80
2022/03/13 07:05:11;;;;;;;22.35;12.90;;;7.50;99.90;;;;;;6286962;22;20011;-81
2022/03/13 07:07:37;;;;;;;21.65;13.15;;;7.50;99.90;;;;;;6312606;22;20023;-80
2022/03/13 07:10:04;;;;;;;21.83;12.65;;;7.50;99.90;;;;;;6311778;22;20019;-80
2022/03/13 07:12:29;;;;;;;21.83;12.90;;;7.50;99.90;;;;;;6286701;22;20014;-82
2022/03/13 07:14:56;;;;;;;23.08;13.43;;;7.50;99.90;;;;;;6312545;22;20014;-82
2022/03/13 07:17:23;;;;;;;24.17;14.35;;;7.50;99.90;;;;;;6312846;22;20002;-82
2022/03/13 07:19:51;;;;;;;22.65;14.20;;;7.50;99.90;;;;;;6312040;22;20014;-82
2022/03/13 07:22:17;;;;;;;23.67;13.23;;;7.50;99.90;;;;;;6312106;22;20075;-81
2022/03/13 07:24:46;;;;;;;24.90;13.95;;;7.50;99.90;;;;;;6339195;22;20089;-81
2022/03/13 07:27:16;;;;;;;22.60;13.90;;;7.60;99.90;;;;;;6339235;22;20018;-81
2022/03/13 07:29:42;;;;;;;22.85;12.88;;;7.50;99.90;;;;;;6312566;22;20014;-80
2022/03/13 07:32:10;;;;;;;23.15;13.00;;;7.60;99.90;;;;;;6311548;22;20017;-80
2022/03/13 07:34:36;;;;;;;21.33;13.20;;;7.60;99.90;;;;;;6312093;22;20010;-81
2022/03/13 07:37:03;;;;;;;21.90;13.65;;;7.70;99.90;;;;;;6339455;22;20065;-81
2022/03/13 07:39:30;;;;;;;24.50;13.50;;;7.70;99.90;;;;;;6340180;22;20124;-82
2022/03/13 07:41:57;;;;;;;21.23;13.13;;;7.70;99.90;;;;;;6312903;22;20136;-81
2022/03/13 07:44:26;;;;;;;23.20;13.13;;;7.80;99.90;;;;;;6340686;22;20049;-81
2022/03/13 07:46:55;;;;;;;22.08;13.35;;;7.70;99.90;;;;;;6312371;22;20099;-82
2022/03/13 07:49:21;;;;;;;25.80;13.60;;;7.80;99.90;;;;;;6261181;22;20344;-83
2022/03/13 07:51:51;;;;;;;20.77;12.68;;;7.80;99.90;;;;;;6312227;22;20026;-82
2022/03/13 07:54:19;;;;;;;23.75;13.88;;;7.80;99.90;;;;;;6286013;22;20011;-81
2022/03/13 07:56:46;;;;;;;27.48;14.45;;;7.80;99.90;;;;;;6286633;22;20022;-81
2022/03/13 07:59:12;;;;;;;23.48;12.98;;;7.80;99.90;;;;;;6312009;22;20019;-82
2022/03/13 08:01:44;;;;;;;24.55;13.25;;;7.90;99.90;;;;;;6315088;22;20347;-82
2022/03/13 08:04:10;;;;;;;21.48;12.23;;;7.90;99.90;;;;;;6323489;22;20015;-81
2022/03/13 08:06:37;;;;;;;23.45;12.75;;;7.90;99.90;;;;;;6329124;22;20053;-81
2022/03/13 08:09:04;;;;;;;23.00;12.20;;;7.90;99.90;;;;;;6362936;22;20513;-82
2022/03/13 08:11:35;;;;;;;21.23;12.68;;;8.00;99.90;;;;;;6348824;22;20011;-83
2022/03/13 08:14:07;;;;;;;22.77;12.30;;;8.00;99.90;;;;;;6313566;22;20018;-83
2022/03/13 08:16:32;;;;;;;19.60;12.25;;;8.20;99.90;;;;;;6313894;22;20007;-82
2022/03/13 08:19:00;;;;;;;19.45;12.30;;;8.20;99.90;;;;;;6287173;22;20394;-82
2022/03/13 08:21:31;;;;;;;20.25;12.13;;;8.30;99.90;;;;;;6339764;22;20387;-82
2022/03/13 08:23:57;;;;;;;20.88;11.77;;;8.30;99.90;;;;;;6311758;22;20019;-82
2022/03/13 08:26:27;;;;;;;20.60;12.43;;;8.40;99.90;;;;;;6311231;22;20508;-82
2022/03/13 08:28:55;;;;;;;20.95;11.65;;;8.50;99.90;;;;;;6311320;22;20440;-82
2022/03/13 08:31:23;;;;;;;20.95;11.82;;;8.50;99.90;;;;;;6339890;22;20116;-80
2022/03/13 08:33:51;;;;;;;22.60;12.50;;;8.60;99.90;;;;;;6311690;22;20019;-81
2022/03/13 08:36:21;;;;;;;23.58;12.70;;;8.70;99.90;;;;;;6312171;22;20073;-81
2022/03/13 08:38:47;;;;;;;18.70;11.27;;;8.90;99.90;;;;;;6310949;22;20421;-81
2022/03/13 08:41:14;;;;;;;19.13;11.10;;;9.00;99.90;;;;;;6311636;22;20025;-80
2022/03/13 08:43:40;;;;;;;20.42;11.55;;;9.20;99.90;;;;;;6310309;22;20046;-81
2022/03/13 08:46:05;;;;;;;19.67;10.55;;;9.30;99.90;;;;;;6285760;22;20340;-81
2022/03/13 08:48:31;;;;;;;19.40;11.32;;;9.50;99.90;;;;;;6312284;22;20014;-82
2022/03/13 08:51:03;;;;;;;19.27;11.88;;;9.50;99.90;;;;;;6339634;22;20042;-82
2022/03/13 08:53:28;;;;;;;21.75;11.88;;;9.60;99.90;;;;;;6285483;22;20128;-81
2022/03/13 08:55:54;;;;;;;20.08;11.68;;;9.70;99.90;;;;;;6284865;22;20015;-81
2022/03/13 08:58:20;;;;;;;18.88;10.98;;;9.70;99.90;;;;;;6286086;22;20013;-82
2022/03/13 09:00:45;;;;;;;18.67;11.23;;;9.80;99.90;;;;;;6285104;22;20063;-82
2022/03/13 09:03:11;;;;;;;18.13;10.82;;;9.90;99.90;;;;;;6285482;22;20343;-81
2022/03/13 09:05:43;;;;;;;20.90;11.27;;;9.90;99.90;;;;;;6285737;22;20340;-82
2022/03/13 09:08:09;;;;;;;19.30;10.80;;;10.00;99.90;;;;;;6311187;22;20388;-80
2022/03/13 09:10:34;;;;;;;18.55;10.57;;;10.10;99.90;;;;;;6310254;22;20113;-81
2022/03/13 09:13:07;;;;;;;19.33;10.48;;;10.20;99.90;;;;;;6310926;22;20011;-81
2022/03/13 09:15:35;;;;;;;19.88;11.65;;;10.40;99.90;;;;;;6310680;22;20059;-81
2022/03/13 09:18:02;;;;;;;19.33;11.15;;;10.50;99.90;;;;;;6311997;22;20057;-79
2022/03/13 09:20:28;;;;;;;18.58;10.95;;;10.60;99.90;;;;;;6339768;22;20058;-83
2022/03/13 09:22:54;;;;;;;19.48;10.88;;;10.60;99.90;;;;;;6260853;22;20011;-82
2022/03/13 09:25:21;;;;;;;19.13;10.77;;;10.70;99.90;;;;;;6312169;22;20336;-84
2022/03/13 09:27:48;;;;;;;19.83;11.38;;;10.80;99.90;;;;;;6311764;22;20100;-82
2022/03/13 09:30:14;;;;;;;18.17;10.57;;;11.00;99.90;;;;;;6338380;22;20014;-82
2022/03/13 09:32:41;;;;;;;20.50;11.43;;;11.30;99.90;;;;;;6338332;22;20007;-81
2022/03/13 09:35:08;;;;;;;18.70;10.63;;;11.60;99.90;;;;;;6311585;22;20011;-82
2022/03/13 09:37:43;;;;;;;18.25;10.65;;;11.80;99.90;;;;;;6286174;22;20060;-84
2022/03/13 09:40:10;;;;;;;18.40;10.85;;;12.00;99.90;;;;;;6310956;22;20023;-82
2022/03/13 09:42:37;;;;;;;19.77;11.65;;;12.10;99.90;;;;;;6338506;22;20026;-83
2022/03/13 09:45:05;;;;;;;19.65;10.88;;;12.40;99.90;;;;;;6310477;22;20003;-83
2022/03/13 09:47:31;;;;;;;20.08;11.43;;;12.60;99.90;;;;;;6284745;22;20014;-83
2022/03/13 09:49:57;;;;;;;17.70;10.77;;;12.80;99.90;;;;;;6285376;22;20014;-83
2022/03/13 09:52:22;;;;;;;18.58;11.35;;;12.90;99.90;;;;;;6312030;22;20033;-82
2022/03/13 09:54:53;;;;;;;17.75;10.27;;;13.10;99.90;;;;;;6340158;22;20011;-82
2022/03/13 09:57:20;;;;;;;19.40;11.45;;;13.30;99.90;;;;;;6313893;22;20010;-83
2022/03/13 09:59:46;;;;;;;17.25;10.90;;;13.40;99.90;;;;;;6313719;22;20093;-82
2022/03/13 10:02:13;;;;;;;18.85;10.95;;;13.50;99.90;;;;;;6341689;22;20061;-83
2022/03/13 10:04:38;;;;;;;18.58;11.13;;;13.40;99.70;;;;;;6288179;22;20024;-84
2022/03/13 10:07:13;;;;;;;19.80;12.15;;;13.50;99.60;;;;;;6313439;22;20068;-83
2022/03/13 10:09:43;;;;;;;19.92;11.90;;;13.60;99.30;;;;;;6315074;22;20445;-82
2022/03/13 10:12:18;;;;;;;24.77;11.68;;;13.70;98.60;;;;;;6340696;22;20306;-83
2022/03/13 10:15:06;;;;;;;18.10;11.80;;;13.80;98.80;;;;;;6312465;22;20011;-83
2022/03/13 10:17:35;;;;;;;19.52;11.43;;;14.10;99.30;;;;;;6313321;22;20013;-84
2022/03/13 10:20:20;;;;;;;21.10;12.10;;;14.20;98.60;;;;;;6286013;22;20010;-81
2022/03/13 10:22:59;;;;;;;19.67;11.55;;;14.30;98.20;;;;;;6315173;22;20017;-82
2022/03/13 10:25:34;;;;;;;17.63;11.55;;;14.50;98.40;;;;;;6312529;22;20018;-81
2022/03/13 10:28:13;;;;;;;17.90;11.85;;;14.60;97.70;;;;;;6286949;22;20015;-81
2022/03/13 10:30:43;;;;;;;19.70;12.18;;;14.60;96.80;;;;;;6287109;22;20318;-82
2022/03/13 10:33:13;;;;;;;19.58;11.98;;;14.80;97.00;;;;;;6339427;22;20014;-82
2022/03/13 10:35:40;;;;;;;17.90;11.75;;;15.00;96.90;;;;;;6338724;22;20010;-82
2022/03/13 10:38:23;;;;;;;17.98;11.55;;;15.10;95.90;;;;;;6275878;22;20101;-83
2022/03/13 10:40:56;;;;;;;17.73;11.68;;;15.10;95.00;;;;;;6249489;22;20011;-82
2022/03/13 10:43:26;;;;;;;19.80;11.45;;;14.90;94.30;;;;;;6249857;22;20011;-82
2022/03/13 10:45:54;;;;;;;19.92;11.88;;;14.70;94.90;;;;;;6250079;22;20453;-82
2022/03/13 10:48:28;;;;;;;17.38;11.77;;;14.70;95.10;;;;;;6224561;22;20488;-82
2022/03/13 10:50:59;;;;;;;19.05;11.93;;;14.80;94.90;;;;;;6250048;22;20007;-82
2022/03/13 10:53:28;;;;;;;17.70;11.50;;;15.00;95.00;;;;;;6250336;22;20086;-82
2022/03/13 10:56:14;;;;;;;21.70;11.95;;;15.20;95.40;;;;;;6250000;22;20016;-81
2022/03/13 10:58:47;;;;;;;17.92;12.13;;;15.40;95.20;;;;;;6250644;22;20016;-82
2022/03/13 11:01:18;;;;;;;18.73;12.07;;;15.60;94.80;;;;;;6249726;22;20404;-82
2022/03/13 11:04:01;;;;;;;19.08;12.10;;;15.70;94.50;;;;;;6249487;22;20019;-82
2022/03/13 11:06:27;;;;;;;18.02;12.43;;;15.70;94.30;;;;;;6249010;22;20020;-82
2022/03/13 11:08:57;;;;;;;18.88;12.38;;;15.50;93.50;;;;;;6272182;22;20057;-83
2022/03/13 11:11:27;;;;;;;17.45;11.43;;;15.40;93.70;;;;;;6312462;22;20007;-84
2022/03/13 11:13:59;;;;;;;20.25;12.18;;;15.30;93.40;;;;;;6313337;22;20011;-84
2022/03/13 11:16:34;;;;;;;20.40;11.88;;;15.20;93.20;;;;;;6287440;22;20410;-84
2022/03/13 11:19:05;;;;;;;19.70;12.77;;;15.10;92.90;;;;;;6340861;22;20094;-83
2022/03/13 11:21:32;;;;;;;21.17;12.05;;;15.20;93.60;;;;;;6311681;22;20049;-84
2022/03/13 11:24:00;;;;;;;16.35;11.15;;;15.20;93.00;;;;;;6311371;22;20006;-84
2022/03/13 11:26:31;;;;;;;17.75;11.93;;;15.20;93.10;;;;;;6313315;22;20332;-84
2022/03/13 11:28:59;;;;;;;18.95;11.90;;;15.30;92.90;;;;;;6288164;22;20445;-85
2022/03/13 11:31:29;;;;;;;18.27;12.02;;;15.20;92.80;;;;;;6340757;22;20313;-84
2022/03/13 11:34:19;;;;;;;17.70;11.77;;;15.10;92.50;;;;;;6313410;22;20076;-85
2022/03/13 11:36:51;;;;;;;19.80;12.35;;;15.10;92.70;;;;;;6339292;22;20542;-85
2022/03/13 11:39:28;;;;;;;18.85;12.15;;;15.00;92.30;;;;;;6313513;22;20079;-84
2022/03/13 11:41:55;;;;;;;17.35;11.35;;;15.10;92.70;;;;;;6336488;22;20052;-84
2022/03/13 11:44:23;;;;;;;18.13;11.95;;;15.10;93.00;;;;;;6313277;22;20014;-83
2022/03/13 11:46:51;;;;;;;16.10;10.90;;;15.10;92.30;;;;;;6311894;22;20022;-84
2022/03/13 11:49:29;;;;;;;18.20;11.68;;;15.10;92.40;;;;;;6285790;22;20042;-84
2022/03/13 11:52:13;;;;;;;18.77;11.10;;;15.10;92.40;;;;;;6285409;22;20023;-83
2022/03/13 11:54:45;;;;;;;18.98;11.07;;;15.30;92.10;;;;;;6311760;22;20055;-84
2022/03/13 11:57:18;;;;;;;17.48;10.70;;;15.50;92.10;;;;;;6285894;22;20085;-83
2022/03/13 11:59:48;;;;;;;17.40;11.57;;;15.50;91.50;;;;;;6311144;22;20425;-83
2022/03/13 12:02:40;;;;;;;17.48;10.98;;;15.50;92.20;;;;;;6311180;22;20015;-84
2022/03/13 12:05:28;;;;;;;18.33;10.73;;;15.80;91.50;;;;;;6339427;22;20444;-83
2022/03/13 12:08:05;;;;;;;18.65;11.13;;;16.20;92.40;;;;;;6340067;22;20082;-82
2022/03/13 12:10:42;;;;;;;18.50;11.38;;;16.50;91.20;;;;;;6312704;22;20030;-81
2022/03/13 12:13:15;;;;;;;19.10;11.23;;;16.40;87.90;;;;;;6312851;22;20006;-83
2022/03/13 12:15:44;;;;;;;22.58;11.65;;;16.10;87.40;;;;;;6311218;22;20013;-82
2022/03/13 12:18:31;;;;;;;19.83;11.68;;;16.00;88.10;;;;;;6287186;22;20360;-82
2022/03/13 12:21:10;;;;;;;16.50;10.10;;;15.90;88.60;;;;;;6311403;22;20404;-82
2022/03/13 12:23:38;;;;;;;16.55;10.05;;;15.90;89.40;;;;;;6312299;22;20010;-84
2022/03/13 12:26:22;;;;;;;14.77;10.18;;;16.10;90.40;;;;;;6286110;22;20011;-82
2022/03/13 12:28:55;;;;;;;17.23;9.63;;;16.50;90.00;;;;;;6285705;22;20348;-83
2022/03/13 12:31:22;;;;;;;17.55;10.52;;;16.80;88.50;;;;;;6285743;22;20071;-82
2022/03/13 12:33:50;;;;;;;16.38;10.50;;;17.00;87.40;;;;;;6286422;22;20014;-81
2022/03/13 12:36:17;;;;;;;15.40;10.43;;;17.20;86.00;;;;;;6285741;22;20013;-82
2022/03/13 12:38:48;;;;;;;19.45;10.10;;;17.30;86.20;;;;;;6317700;22;20021;-81
2022/03/13 12:41:14;;;;;;;17.02;10.25;;;17.50;86.30;;;;;;6296890;22;20067;-83
2022/03/13 12:43:56;;;;;;;17.52;10.23;;;17.70;84.80;;;;;;6303125;22;20015;-84
2022/03/13 12:46:25;;;;;;;19.13;10.82;;;17.70;84.10;;;;;;6309319;22;20019;-83
2022/03/13 12:48:59;;;;;;;16.38;10.95;;;17.80;83.00;;;;;;6300735;22;20076;-83
2022/03/13 12:51:45;;;;;;;18.52;11.70;;;17.90;80.90;;;;;;6313755;22;20072;-83
2022/03/13 12:54:14;;;;;;;;;;;18.00;81.30;;;;;;6287778;22;20018;-82
2022/03/13 12:57:05;;;;;;;16.52;10.38;;;18.20;80.20;;;;;;6338973;22;19955;-83
2022/03/13 12:59:32;;;;;;;15.65;10.65;;;18.60;77.10;;;;;;6285954;22;20022;-84
2022/03/13 13:02:09;;;;;;;16.35;10.55;;;19.00;76.80;;;;;;6339442;22;20015;-84
2022/03/13 13:04:40;;;;;;;17.63;10.88;;;19.30;74.90;;;;;;6311778;22;20015;-84
2022/03/13 13:07:09;;;;;;;16.85;11.35;;;19.60;73.20;;;;;;6285641;22;20019;-84
2022/03/13 13:09:40;;;;;;;15.50;10.27;;;19.60;70.60;;;;;;6312698;22;20046;-84
2022/03/13 13:12:09;;;;;;;15.20;10.48;;;19.80;70.20;;;;;;6311513;22;20015;-84
2022/03/13 13:14:40;;;;;;;16.77;10.57;;;19.90;68.90;;;;;;6311980;22;20030;-83
2022/03/13 13:17:13;;;;;;;16.95;10.48;;;19.90;68.20;;;;;;6339796;22;20077;-81
2022/03/13 13:19:47;;;;;;;16.77;10.57;;;19.80;69.00;;;;;;6311385;22;20015;-83
2022/03/13 13:22:14;;;;;;;15.38;10.30;;;19.60;69.40;;;;;;6311180;22;20388;-83
2022/03/13 13:25:01;;;;;;;17.77;10.32;;;19.50;69.40;;;;;;6284793;22;20015;-84
2022/03/13 13:27:51;;;;;;;16.08;10.70;;;19.30;67.60;;;;;;6311543;22;20019;-84
2022/03/13 13:30:30;;;;;;;15.60;10.27;;;19.20;69.50;;;;;;6313512;22;20011;-84
2022/03/13 13:33:15;;;;;;;15.07;9.75;;;19.10;68.60;;;;;;6287837;22;20113;-82
2022/03/13 13:35:54;;;;;;;16.40;10.45;;;19.00;67.70;;;;;;6313643;22;20010;-84
2022/03/13 13:38:27;;;;;;;16.80;10.30;;;18.80;66.50;;;;;;6313397;22;20074;-84
2022/03/13 13:40:52;;;;;;;18.42;10.23;;;18.70;67.20;;;;;;6263163;22;20057;-84
2022/03/13 13:43:34;;;;;;;14.25;9.48;;;18.60;67.40;;;;;;6287761;22;20086;-84
2022/03/13 13:46:11;;;;;;;15.60;10.45;;;18.50;66.10;;;;;;6312732;22;20011;-83
2022/03/13 13:48:43;;;;;;;15.30;10.23;;;18.50;66.20;;;;;;6287068;22;20021;-84
2022/03/13 13:51:15;;;;;;;15.77;10.43;;;18.50;66.90;;;;;;6313650;22;20055;-83
2022/03/13 13:53:59;;;;;;;17.43;10.33;;;18.60;66.20;;;;;;6340935;22;20010;-84
2022/03/13 13:56:39;;;;;;;15.90;10.57;;;18.60;66.80;;;;;;6287388;22;20019;-83
2022/03/13 13:59:32;;;;;;;14.95;9.38;;;18.80;67.20;;;;;;6313699;22;20025;-84
2022/03/13 14:02:08;;;;;;;15.10;10.07;;;18.80;64.40;;;;;;6340629;22;20018;-85
2022/03/13 14:04:40;;;;;;;16.48;10.85;;;18.90;64.70;;;;;;6315520;22;20015;-83
2022/03/13 14:07:08;;;;;;;15.20;9.40;;;19.00;64.90;;;;;;6313141;22;20019;-86
2022/03/13 14:09:35;;;;;;;14.02;9.77;;;19.00;64.90;;;;;;6287356;22;20038;-84
2022/03/13 14:12:01;;;;;;;14.20;10.18;;;19.10;65.20;;;;;;6287768;22;20020;-85
2022/03/13 14:14:31;;;;;;;16.27;10.35;;;19.10;65.50;;;;;;6262795;22;20517;-83
2022/03/13 14:16:59;;;;;;;16.13;10.07;;;19.20;65.80;;;;;;6287714;22;20007;-85
2022/03/13 14:19:30;;;;;;;27.52;11.48;;;19.20;64.10;;;;;;6313907;22;20191;-86
2022/03/13 14:21:58;;;;;;;14.77;9.73;;;19.10;64.10;;;;;;6287259;22;20071;-83
2022/03/13 14:24:23;;;;;;;19.92;11.20;;;19.10;63.90;;;;;;6287894;22;20043;-83
2022/03/13 14:26:54;;;;;;;16.27;11.40;;;19.00;63.60;;;;;;6340746;22;20407;-84
2022/03/13 14:29:22;;;;;;;15.18;10.68;;;19.10;64.30;;;;;;6341022;22;20011;-85
2022/03/13 14:31:50;;;;;;;17.70;10.68;;;19.10;64.30;;;;;;6340804;22;20003;-82
2022/03/13 14:34:16;;;;;;;15.02;9.80;;;19.20;64.60;;;;;;6312304;22;20066;-84
2022/03/13 14:36:42;;;;;;;16.02;10.07;;;19.30;64.10;;;;;;6340723;22;20056;-84
2022/03/13 14:39:11;;;;;;;17.02;10.32;;;19.30;63.40;;;;;;6314141;22;20018;-83
2022/03/13 14:41:39;;;;;;;14.02;9.32;;;19.30;63.40;;;;;;6312142;22;20340;-83
2022/03/13 14:44:23;;;;;;;15.45;10.02;;;19.50;63.80;;;;;;6275392;22;20091;-82
2022/03/13 14:46:52;;;;;;;14.57;9.48;;;19.50;62.30;;;;;;6275232;22;20428;-85
2022/03/13 14:49:19;;;;;;;12.52;8.40;;;19.30;62.10;;;;;;6249256;22;20043;-84
2022/03/13 14:51:47;;;;;;;14.50;8.98;;;19.10;60.50;;;;;;6275149;22;20015;-83
2022/03/13 14:54:13;;;;;;;13.10;8.55;;;19.00;60.80;;;;;;6249784;22;20050;-83
2022/03/13 14:56:39;;;;;;;16.52;9.18;;;18.90;60.70;;;;;;6223261;22;20023;-83
2022/03/13 14:59:08;;;;;;;12.18;8.57;;;19.00;59.80;;;;;;6275963;22;20015;-84
2022/03/13 15:01:35;;;;;;;13.73;8.48;;;18.90;60.30;;;;;;6249524;22;20007;-83
2022/03/13 15:04:03;;;;;;;13.65;8.57;;;18.90;60.10;;;;;;6275469;22;20014;-82
2022/03/13 15:06:35;;;;;;;12.60;8.98;;;19.00;60.80;;;;;;6250078;22;20469;-83
2022/03/13 15:09:04;;;;;;;15.13;9.68;;;18.90;61.20;;;;;;6250415;22;20051;-83
2022/03/13 15:11:30;;;;;;;11.85;8.30;;;18.80;60.60;;;;;;6275921;22;20011;-84
2022/03/13 15:13:56;;;;;;;12.73;8.77;;;18.70;60.70;;;;;;6249946;22;20050;-85
2022/03/13 15:16:22;;;;;;;12.13;8.57;;;18.60;60.80;;;;;;6309273;22;20011;-84
2022/03/13 15:18:49;;;;;;;12.50;8.23;;;18.60;61.30;;;;;;6341414;22;20041;-84
2022/03/13 15:21:15;;;;;;;16.98;9.85;;;18.60;61.30;;;;;;6338933;22;20068;-83
2022/03/13 15:23:43;;;;;;;13.00;8.77;;;18.50;61.60;;;;;;6286287;22;20021;-84
2022/03/13 15:26:12;;;;;;;14.35;10.05;;;18.40;61.60;;;;;;6287959;22;20017;-83
2022/03/13 15:28:38;;;;;;;14.02;9.20;;;18.30;62.10;;;;;;6313066;22;20412;-83
2022/03/13 15:31:06;;;;;;;13.10;9.80;;;18.30;62.40;;;;;;6312032;22;20021;-82
2022/03/13 15:33:33;;;;;;;15.40;9.07;;;18.30;61.80;;;;;;6312202;22;20011;-83
2022/03/13 15:35:59;;;;;;;14.50;9.68;;;18.50;61.80;;;;;;6311643;22;20015;-83
2022/03/13 15:38:25;;;;;;;15.15;9.18;;;18.40;61.70;;;;;;6311576;22;20025;-82
2022/03/13 15:40:51;;;;;;;15.02;10.18;;;18.40;61.80;;;;;;6312008;22;20006;-82
2022/03/13 15:43:18;;;;;;;14.88;10.15;;;18.30;61.70;;;;;;6312093;22;20467;-84
2022/03/13 15:45:44;;;;;;;15.70;9.50;;;18.30;61.30;;;;;;6286652;22;20011;-84
2022/03/13 15:48:12;;;;;;;14.27;9.27;;;18.20;62.00;;;;;;6312495;22;20007;-84
2022/03/13 15:50:42;;;;;;;15.25;9.68;;;18.30;62.20;;;;;;6340315;22;20076;-84
2022/03/13 15:53:09;;;;;;;16.90;9.95;;;18.30;62.20;;;;;;6340057;22;20013;-83
2022/03/13 15:55:35;;;;;;;15.07;9.55;;;18.30;61.80;;;;;;6312456;22;20018;-84
2022/03/13 15:58:00;;;;;;;17.02;10.38;;;18.30;61.80;;;;;;6311775;22;20029;-83
2022/03/13 16:00:27;;;;;;;15.00;9.63;;;18.30;62.40;;;;;;6311295;22;20441;-82
2022/03/13 16:02:53;;;;;;;15.25;9.75;;;18.50;62.20;;;;;;6286191;22;20022;-84
2022/03/13 16:05:19;;;;;;;15.18;9.90;;;18.60;62.30;;;;;;6311655;22;20014;-83
2022/03/13 16:07:48;;;;;;;14.35;9.55;;;18.60;61.90;;;;;;6340046;22;20017;-84
2022/03/13 16:10:15;;;;;;;16.33;9.63;;;18.50;61.90;;;;;;6339720;22;20309;-84
2022/03/13 16:12:43;;;;;;;15.48;10.48;;;18.40;62.50;;;;;;6286029;22;20018;-84
2022/03/13 16:15:09;;;;;;;16.45;10.40;;;18.30;62.70;;;;;;6286211;22;20041;-83
2022/03/13 16:17:37;;;;;;;13.77;9.77;;;18.30;62.80;;;;;;6286474;22;20499;-78
2022/03/13 16:20:07;;;;;;;14.40;9.68;;;18.20;63.00;;;;;;6311930;22;20011;-83
2022/03/13 16:22:36;;;;;;;13.77;9.50;;;18.20;63.00;;;;;;6312730;22;20050;-84
2022/03/13 16:25:05;;;;;;;13.27;9.38;;;18.10;62.90;;;;;;6287373;22;20343;-84
2022/03/13 16:27:34;;;;;;;15.38;9.73;;;18.00;63.30;;;;;;6313437;22;20097;-84
2022/03/13 16:30:07;;;;;;;16.27;9.95;;;17.90;63.90;;;;;;6312797;22;20034;-85
2022/03/13 16:32:34;;;;;;;17.38;10.35;;;17.70;64.10;;;;;;6313271;22;20038;-85
2022/03/13 16:35:00;;;;;;;14.20;9.77;;;17.50;64.60;;;;;;6286691;22;20017;-84
2022/03/13 16:37:28;;;;;;;16.92;9.60;;;17.40;65.10;;;;;;6312425;22;20003;-84
2022/03/13 16:39:58;;;;;;;13.25;9.32;;;17.10;65.40;;;;;;6340473;22;20114;-85
2022/03/13 16:42:27;;;;;;;15.43;9.90;;;17.00;65.90;;;;;;6341172;22;20393;-84
2022/03/13 16:44:54;;;;;;;17.27;9.77;;;16.90;66.50;;;;;;6286621;22;20019;-84
2022/03/13 16:47:29;;;;;;;16.02;9.63;;;16.70;67.10;;;;;;6289076;22;20011;-84
2022/03/13 16:49:54;;;;;;;15.95;10.10;;;16.60;67.40;;;;;;6312315;22;20398;-84
2022/03/13 16:52:23;;;;;;;17.40;10.40;;;16.50;68.00;;;;;;6340468;22;20081;-83
2022/03/13 16:54:49;;;;;;;13.82;9.48;;;16.30;68.40;;;;;;6261001;22;20112;-83
2022/03/13 16:57:15;;;;;;;14.93;9.90;;;16.30;68.90;;;;;;6311957;22;20019;-88
2022/03/13 16:59:41;;;;;;;14.63;9.93;;;16.10;68.90;;;;;;6311139;22;20040;-82
2022/03/13 17:02:10;;;;;;;16.23;10.85;;;16.00;69.00;;;;;;6285752;22;20019;-83
2022/03/13 17:04:38;;;;;;;17.38;10.70;;;15.90;69.30;;;;;;6339875;22;20089;-83
2022/03/13 17:07:05;;;;;;;14.38;9.88;;;15.80;69.70;;;;;;6285922;22;20389;-82
2022/03/13 17:09:31;;;;;;;15.55;10.60;;;15.70;69.80;;;;;;6311505;22;20067;-84
2022/03/13 17:11:58;;;;;;;15.32;10.48;;;15.60;70.10;;;;;;6338077;22;20090;-84
2022/03/13 17:14:27;;;;;;;16.27;10.48;;;15.50;70.30;;;;;;6340922;22;20085;-83
2022/03/13 17:16:54;;;;;;;17.63;10.65;;;15.40;70.60;;;;;;6339845;22;20087;-83
2022/03/13 17:19:23;;;;;;;17.42;11.05;;;15.30;71.10;;;;;;6312859;22;20046;-83
2022/03/13 17:21:54;;;;;;;16.25;10.90;;;15.20;71.50;;;;;;6287225;22;20101;-83
2022/03/13 17:24:23;;;;;;;16.77;10.60;;;15.10;72.00;;;;;;6339443;22;20026;-83
2022/03/13 17:26:50;;;;;;;16.77;10.57;;;15.00;72.50;;;;;;6311339;22;20015;-84
2022/03/13 17:29:16;;;;;;;17.77;10.68;;;14.90;73.00;;;;;;6312577;22;20337;-85
2022/03/13 17:31:46;;;;;;;16.83;11.10;;;14.80;73.60;;;;;;6311994;22;20015;-83
2022/03/13 17:34:20;;;;;;;16.88;11.40;;;14.80;74.00;;;;;;6339643;22;20368;-85
2022/03/13 17:36:46;;;;;;;17.45;11.25;;;14.60;74.40;;;;;;6312275;22;20011;-85
2022/03/13 17:39:15;;;;;;;17.15;10.73;;;14.60;74.70;;;;;;6312883;22;20029;-84
2022/03/13 17:41:40;;;;;;;19.38;10.27;;;14.40;75.10;;;;;;6259729;22;20093;-83
2022/03/13 17:44:10;;;;;;;17.38;10.88;;;14.30;75.50;;;;;;6285630;22;20018;-83
2022/03/13 17:46:38;;;;;;;16.05;11.15;;;14.30;76.00;;;;;;6311259;22;20019;-84